LIRI Informações do Aeroporto

Informações da Pista
Pista 05 Comprimento 4577 ft Largura 148 ft
Elevação 82 ft Limite 0 ft Heading 48
Pista 23 Comprimento 4577 ft Largura 148 ft
Elevação 119 ft Limite 312 ft Heading 228
Frequências do Aeroporto
Tipo AFIS Nome SALERNO IN Frequência 119.175 MHZ
Navaids do Aeroporto
Informações meteorológicas do aeroporto e NOTAM
ADDS - METARS form results

(1124 UTC 22 August 2019)
Data provider http://aviationweather.gov/metar/data/
 
METAR text: LIRI 221050Z 23006KT CAVOK 30/20 Q1018
Conditions at: LIRI (PONTECAGNANO (AF, IT) observed 1050 UTC 22 August 2019
Temperature: 30.0°C (86°F)
Dewpoint: 20.0°C (68°F) [RH = 55%]
Pressure (altimeter): 30.06 inches Hg (1018.0 mb)
Winds: from the SW (230 degrees) at 7 MPH (6 knots; 3.1 m/s)
Visibility: 6 or more miles (10+ km)
Ceiling: ceiling and visibility are OK
Clouds: unknown
Weather: no significant weather observed at this time